Stage Stores Inc (SSI) Latest Bloomsberg Price


Mffais Ranking #1574 Overall / #6 Industry
Industry: Department Stores

Number of Companies: 77 (Ranking #1939 Overall/#7 Industry)
Inflow: $ 4,655 (K) (Ranking #2226 Overall/#7 Industry)
Outflow: $ -7,458 (K)
Mffais Flow: $ -2,803 (K) (Ranking #1574 Overall/#6 Industry)


Receive a FREE weekly executive review of stocks moving into the top 10, taking the top industy spot or moving up within their industry. Sent directly to your Inbox every Saturday. Sign up today and get last week's review immediately sent to you.

We value and respect your privacy. Please read our Terms and Conditions which states our firm commitment to your privacy. Your email address will not be shared with a third party, nor will it be sold or used for purposes other than subscription for the weekly review.

Owner CPOR Shares Action Qty Chg Invested (K) Total Current Value (K)
Coe Capital Management Llc 2016-09-30 242,025 New Holding 242,025 $ 1,362 $ 1,362
Gsa Capital Partners Llp 2016-09-30 171,293 Added More 134,800 $ 758 $ 964
Northern Trust Corp 2016-09-30 485,046 Added More 95,685 $ 538 $ 2,730
Bridgeway Capital Management Inc 2016-09-30 263,200 Added More 92,300 $ 519 $ 1,481
Parametric Portfolio Associates Llc 2016-09-30 265,333 Added More 67,348 $ 379 $ 1,493
Spark Investment Management Llc 2016-09-30 355,100 Added More 55,840 $ 314 $ 1,999
Landscape Capital Management L L C 2016-09-30 36,967 New Holding 36,967 $ 208 $ 208
North Star Investment Management Corp 2016-09-30 99,850 Added More 21,000 $ 118 $ 562
Trexquant Investment Lp 2016-09-30 20,487 New Holding 20,487 $ 115 $ 115
Zurcher Kantonalbank Zurich Cantonalbank 2016-09-30 18,079 Added More 17,628 $ 99 $ 101
Legal General Group Plc 2016-09-30 22,148 Added More 17,470 $ 98 $ 124
Deere Co 2016-09-30 15,633 New Holding 15,633 $ 88 $ 88
Group One Trading L P 2016-09-30 2,714 Added More 2,484 $ 13 $ 15
Stifel Financial Corp 2016-09-30 23,505 Added More 2,295 $ 12 $ 132
Advisor Group Inc 2016-09-30 7,636 Added More 2,221 $ 12 $ 42
Guggenheim Capital Llc 2016-09-30 331,094 Added More 984 $ 5 $ 1,864
Summit Financial Wealth Advisors Llc 2016-09-30 13,213 Added More 958 $ 5 $ 74
California State Teachers Retirement System 2016-09-30 54,265 Added More 500 $ 2 $ 305
Wealthtrust-Arizona Llc 2016-09-30 410 Added More 200 $ 1 $ 2
Enterprise Financial Services Corp 2016-09-30 120 No Change 0 $ 0 $ 0
Teachers Retirement System Of The State Of Kentucky 2016-09-30 3,525 No Change 0 $ 0 $ 19
Howe Rusling Inc 2016-09-30 275 No Change 0 $ 0 $ 1
New York State Common Retirement Fund 2016-09-30 12,900 No Change 0 $ 0 $ 72
Chubb Ltd 2016-09-30 16,491 No Change 0 $ 0 $ 92
Royce Associates Lp 2016-09-30 15,000 No Change 0 $ 0 $ 84
Teachers Advisors Inc 2016-09-30 99,614 No Change 0 $ 0 $ 560
Msi Financial Services Inc 2016-09-30 18 No Change 0 $ 0 $ 0
Ladenburg Thalmann Financial Services Inc 2016-09-30 484 No Change 0 $ 0 $ 2
State Of Tennessee Treasury Department 2016-09-30 25,399 No Change 0 $ 0 $ 142
Ls Investment Advisors Llc 2016-09-30 1,093 No Change 0 $ 0 $ 6
Public Sector Pension Investment Board 2016-09-30 21,985 No Change 0 $ 0 $ 123
Us Bancorp De 2016-09-30 431 Sold Some -13 $ -0 $ 2
Mason Street Advisors Llc 2016-09-30 5,183 Sold Some -109 $ -0 $ 29
Thrivent Financial For Lutherans 2016-09-30 12,820 Sold Some -120 $ -0 $ 72
Pnc Financial Services Group Inc 2016-09-30 0 Sold All -205 $ -1 $ 0
American International Group Inc 2016-09-30 18,989 Sold Some -332 $ -1 $ 106
Pinebridge Investments L P 2016-09-30 3,201 Sold Some -562 $ -3 $ 18
Capstone Asset Management Co 2016-09-30 41,642 Sold Some -867 $ -4 $ 234
Arizona State Retirement System 2016-09-30 13,031 Sold Some -1,000 $ -5 $ 73
Comerica Bank 2016-09-30 25,502 Sold Some -1,346 $ -7 $ 143
Creative Planning 2016-09-30 2,645 Sold Some -1,347 $ -7 $ 14
Texas Permanent School Fund 2016-09-30 19,178 Sold Some -1,519 $ -8 $ 107
Tower Research Capital Llc Trc 2016-09-30 99 Sold Some -1,536 $ -8 $ 0
Kcg Holdings Inc 2016-09-30 14,296 Sold Some -2,009 $ -11 $ 80
Arcadia Investment Management Corp Mi 2016-09-30 0 Sold All -2,600 $ -14 $ 0
Blackrock Investment Management Llc 2016-09-30 128,868 Sold Some -3,107 $ -17 $ 725
Qs Investors Llc 2016-09-30 0 Sold All -3,330 $ -18 $ 0
New York State Teachers Retirement System 2016-09-30 90,863 Sold Some -3,900 $ -21 $ 511
Blackrock Inc 2016-09-30 6,856 Sold Some -4,009 $ -22 $ 38
Nationwide Fund Advisors 2016-09-30 15,980 Sold Some -4,236 $ -23 $ 89
Teacher Retirement System Of Texas 2016-09-30 0 Sold All -4,344 $ -24 $ 0
Quantbot Technologies Lp 2016-09-30 0 Sold All -4,400 $ -24 $ 0
Hightower Advisors Llc 2016-09-30 97,900 Sold Some -4,600 $ -25 $ 551
Emerald Acquisition Ltd 2016-09-30 0 Sold All -4,765 $ -26 $ 0
Rhumbline Advisers 2016-09-30 41,686 Sold Some -5,055 $ -28 $ 234
Panagora Asset Management Inc 2016-09-30 0 Sold All -5,686 $ -32 $ 0
Cutler Group Lp 2016-09-30 4,700 Sold Some -5,755 $ -32 $ 26
Connor Clark Lunn Investment Management Ltd 2016-09-30 254,900 Sold Some -7,375 $ -41 $ 1,435
Swiss National Bank 2016-09-30 45,100 Sold Some -7,400 $ -41 $ 253
United Services Automobile Association 2016-09-30 476,580 Sold Some -8,610 $ -48 $ 2,683
Afam Capital Inc 2016-09-30 108,830 Sold Some -8,761 $ -49 $ 612
Pacific Ridge Capital Partners Llc 2016-09-30 288,581 Sold Some -9,869 $ -55 $ 1,624
Menta Capital Llc 2016-09-30 0 Sold All -11,300 $ -63 $ 0
Fuller Thaler Asset Management Inc 2016-09-30 402,200 Sold Some -12,300 $ -69 $ 2,264
Dimensional Fund Advisors Lp 2016-09-30 2,375,928 Sold Some -12,552 $ -70 $ 13,376
Kbc Group Nv 2016-09-30 75,732 Sold Some -13,157 $ -74 $ 426
Tfs Capital Llc 2016-09-30 0 Sold All -14,653 $ -82 $ 0
Peak6 Investments L P 2016-09-30 0 Sold All -15,000 $ -84 $ 0
White Pine Capital Llc 2016-09-30 0 Sold All -18,200 $ -102 $ 0
Strs Ohio 2016-09-30 34,000 Sold Some -19,600 $ -110 $ 191
Cornerstone Capital Management Holdings Llc 2016-09-30 0 Sold All -21,300 $ -119 $ 0
Spot Trading L L C 2016-09-30 0 Sold All -26,400 $ -148 $ 0
Quantitative Investment Management Llc 2016-09-30 0 Sold All -28,200 $ -158 $ 0
Buckhead Capital Management Llc 2016-09-30 69,565 Sold Some -34,000 $ -191 $ 391
Keeley Asset Management Corp 2016-09-30 0 Sold All -106,950 $ -602 $ 0
Mutual Of America Capital Management Llc 2016-09-30 0 Sold All -108,187 $ -609 $ 0
Paradigm Capital Management Inc Ny 2016-09-30 141,100 Sold Some -774,300 $ -4,359 $ 794